Time;durP1;ratioP1;P1;durP2;ratioP2;P2;SDS_P1;SDS_P2;PMS_P1;PMS_P2;Temp;Humidity;BMP_temperature;BMP_pressure;BME280_temperature;BME280_humidity;BME280_pressure;Samples;Min_cycle;Max_cycle;Signal;HPM_P1;HPM_P2
2022/10/21 00:01:52;;;;;;;14.23;6.20;;;14.70;99.90;;;14.77;100.00;100372.72;5248114;28;20056;-71
2022/10/21 00:04:24;;;;;;;11.43;5.15;;;14.70;99.90;;;14.79;100.00;100379.75;5265560;28;20047;-71
2022/10/21 00:06:57;;;;;;;11.65;5.45;;;14.70;99.90;;;14.82;100.00;100378.91;5267132;28;20071;-71
2022/10/21 00:09:30;;;;;;;11.10;5.22;;;14.70;99.90;;;14.83;100.00;100380.66;5267300;28;20064;-71
2022/10/21 00:12:02;;;;;;;11.88;4.97;;;14.70;99.90;;;14.86;100.00;100381.56;5266730;28;20102;-71
2022/10/21 00:14:37;;;;;;;12.13;5.35;;;14.70;99.90;;;14.87;100.00;100362.34;5248804;28;20047;-71
2022/10/21 00:17:10;;;;;;;11.65;5.18;;;14.70;99.90;;;14.86;100.00;100365.81;5267021;28;20043;-71
2022/10/21 00:19:42;;;;;;;9.32;4.47;;;14.70;99.90;;;14.86;100.00;100360.56;5266380;28;20105;-71
2022/10/21 00:22:16;;;;;;;11.95;5.13;;;14.70;99.90;;;14.86;100.00;100359.69;5267003;28;20044;-71
2022/10/21 00:24:48;;;;;;;9.35;4.55;;;14.70;99.90;;;14.85;100.00;100357.94;5266889;28;20046;-71
2022/10/21 00:27:21;;;;;;;8.65;4.22;;;14.70;99.90;;;14.84;100.00;100371.94;5266871;28;20118;-71
2022/10/21 00:29:56;;;;;;;7.85;3.92;;;14.70;99.90;;;14.81;100.00;100372.78;5266084;28;20042;-71
2022/10/21 00:32:28;;;;;;;9.02;4.75;;;14.70;99.90;;;14.79;100.00;100379.75;5266647;28;20048;-71
2022/10/21 00:35:01;;;;;;;7.38;3.78;;;14.70;99.90;;;14.78;100.00;100374.47;5266798;28;20071;-71
2022/10/21 00:37:35;;;;;;;6.93;3.42;;;14.70;99.90;;;14.76;100.00;100369.22;5266599;28;20063;-71
2022/10/21 00:40:09;;;;;;;8.32;4.22;;;14.70;99.90;;;14.75;100.00;100366.59;5266430;28;20040;-71
2022/10/21 00:42:42;;;;;;;7.05;3.50;;;14.60;99.90;;;14.74;100.00;100370.09;5266584;28;20075;-71
2022/10/21 00:45:23;;;;;;;6.85;3.67;;;14.60;99.90;;;14.72;100.00;100362.16;5266770;28;20124;-71
2022/10/21 00:48:01;;;;;;;6.30;3.90;;;14.60;99.90;;;14.68;100.00;100347.28;5266969;28;20403;-71
2022/10/21 00:50:38;;;;;;;7.40;3.75;;;14.50;99.90;;;14.66;100.00;100347.25;5266124;28;20109;-71
2022/10/21 00:53:15;;;;;;;8.50;3.97;;;14.50;99.90;;;14.64;100.00;100354.22;5266947;28;20051;-71
2022/10/21 00:55:50;;;;;;;7.82;3.92;;;14.50;99.90;;;14.63;100.00;100356.84;5266623;28;20048;-71
2022/10/21 00:58:29;;;;;;;7.78;3.78;;;14.50;99.90;;;14.63;100.00;100354.22;5266416;28;20043;-71
2022/10/21 01:01:05;;;;;;;8.88;3.97;;;14.50;99.90;;;14.63;100.00;100343.72;5266029;28;20044;-71
2022/10/21 01:03:37;;;;;;;9.93;4.82;;;14.50;99.90;;;14.61;100.00;100337.59;5266736;28;20500;-71
2022/10/21 01:06:12;;;;;;;7.78;3.80;;;14.50;99.90;;;14.61;100.00;100333.22;5266538;28;20044;-71
2022/10/21 01:08:46;;;;;;;9.13;3.55;;;14.50;99.90;;;14.62;100.00;100331.47;5266648;28;20119;-71
2022/10/21 01:11:21;;;;;;;9.43;3.78;;;14.50;99.90;;;14.63;100.00;100325.34;5247625;28;20138;-70
2022/10/21 01:14:38;;;;;;;7.90;3.75;;;14.50;99.90;;;14.63;100.00;100320.09;5265889;28;20071;-71
2022/10/21 01:17:27;;;;;;;8.32;4.20;;;14.50;99.90;;;14.62;100.00;100318.34;5260660;28;20512;-71
2022/10/21 01:20:39;;;;;;;6.78;3.40;;;14.50;99.90;;;14.61;100.00;100321.84;5247820;28;20744;-71
2022/10/21 01:24:19;;;;;;;9.52;4.00;;;14.50;99.90;;;14.63;100.00;100325.34;5266247;28;20068;-71
2022/10/21 01:27:23;;;;;;;7.38;3.60;;;14.50;99.90;;;14.67;100.00;100327.16;5266215;28;20051;-71
2022/10/21 01:30:37;;;;;;;6.63;3.63;;;14.50;99.90;;;14.68;100.00;100323.66;5265750;28;20043;-71
2022/10/21 01:33:39;;;;;;;8.38;3.47;;;14.60;99.90;;;14.69;100.00;100307.06;5259529;28;20517;-71
2022/10/21 01:36:24;;;;;;;7.55;3.70;;;14.60;99.90;;;14.68;100.00;100297.44;5268993;28;20556;-71
2022/10/21 01:39:13;;;;;;;8.20;3.28;;;14.60;99.90;;;14.64;100.00;100300.88;5270035;28;20048;-71
2022/10/21 01:41:52;;;;;;;7.45;3.97;;;14.60;99.90;;;14.63;100.00;100293.88;5269371;28;20396;-71
2022/10/21 01:44:30;;;;;;;6.50;3.28;;;14.50;99.90;;;14.59;100.00;100297.31;5251730;28;20044;-70
2022/10/21 01:47:09;;;;;;;5.95;3.58;;;14.50;99.90;;;14.57;100.00;100292.06;5251677;28;20143;-70
2022/10/21 01:49:48;;;;;;;7.82;3.60;;;14.50;99.90;;;14.54;100.00;100273.69;5251251;28;20036;-70
2022/10/21 01:52:21;;;;;;;6.03;3.08;;;14.40;99.90;;;14.50;100.00;100281.50;5269781;28;20129;-71
2022/10/21 01:54:58;;;;;;;5.30;2.80;;;14.40;99.90;;;14.48;100.00;100291.09;5269529;28;20044;-70
2022/10/21 01:57:35;;;;;;;6.82;2.70;;;14.40;99.90;;;14.43;100.00;100287.50;5269611;28;20071;-70
2022/10/21 02:00:10;;;;;;;4.15;2.25;;;14.30;99.90;;;14.40;100.00;100289.22;5268952;28;20040;-71
2022/10/21 02:02:46;;;;;;;5.05;2.53;;;14.30;99.90;;;14.37;100.00;100289.19;5251338;28;20139;-70
2022/10/21 02:05:24;;;;;;;2.92;2.10;;;14.30;99.90;;;14.34;100.00;100286.56;5269378;28;20621;-70
2022/10/21 02:07:56;;;;;;;4.15;2.20;;;14.20;99.90;;;14.31;100.00;100280.38;5269359;28;20036;-70
2022/10/21 02:10:33;;;;;;;3.75;2.03;;;14.20;99.90;;;14.25;100.00;100281.19;5268832;28;20052;-70
2022/10/21 02:13:09;;;;;;;4.03;2.10;;;14.10;99.90;;;14.20;100.00;100272.38;5269197;28;20048;-70
2022/10/21 02:15:43;;;;;;;3.80;2.17;;;14.00;99.90;;;14.16;100.00;100265.38;5269524;28;20090;-71
2022/10/21 02:18:23;;;;;;;5.35;2.88;;;14.00;99.90;;;14.14;100.00;100261.81;5269214;28;20043;-71
2022/10/21 02:21:00;;;;;;;6.97;3.13;;;14.00;99.90;;;14.13;100.00;100260.06;5268781;28;20068;-70
2022/10/21 02:23:40;;;;;;;6.00;3.13;;;14.00;99.90;;;14.14;100.00;100261.81;5269388;28;20130;-70
2022/10/21 02:26:12;;;;;;;5.10;2.88;;;14.00;99.90;;;14.15;100.00;100268.84;5269189;28;20050;-71
2022/10/21 02:28:44;;;;;;;6.20;3.05;;;14.00;99.90;;;14.14;100.00;100272.31;5269107;28;20051;-70
2022/10/21 02:31:35;;;;;;;6.07;3.08;;;14.00;99.90;;;14.12;100.00;100269.66;5268234;28;20044;-70
2022/10/21 02:34:25;;;;;;;6.32;3.40;;;14.00;99.90;;;14.09;100.00;100268.78;5269148;28;20408;-70
2022/10/21 02:37:09;;;;;;;7.15;3.10;;;14.00;99.90;;;14.03;100.00;100264.34;5268945;28;20036;-71
2022/10/21 02:39:51;;;;;;;6.60;3.30;;;13.90;99.90;;;14.03;100.00;100258.22;5268453;28;20032;-70
2022/10/21 02:42:32;;;;;;;5.30;2.72;;;13.90;99.90;;;14.03;100.00;100258.22;5268603;28;20040;-70
2022/10/21 02:45:06;;;;;;;4.40;2.65;;;13.90;99.90;;;13.98;100.00;100259.91;5268804;28;20075;-71
2022/10/21 02:47:39;;;;;;;4.22;2.30;;;13.80;99.90;;;13.94;100.00;100253.72;5267459;28;20044;-70
2022/10/21 02:50:12;;;;;;;4.82;2.40;;;13.80;99.90;;;13.91;100.00;100255.44;5268010;28;20127;-71
2022/10/21 02:52:46;;;;;;;5.25;3.25;;;13.80;99.90;;;13.87;100.00;100246.66;5268385;28;20416;-70
2022/10/21 02:55:18;;;;;;;4.07;2.20;;;13.80;99.90;;;13.83;100.00;100250.97;5268562;28;20040;-70
2022/10/21 02:57:50;;;;;;;4.85;2.28;;;13.70;99.90;;;13.79;100.00;100243.94;5268366;28;20090;-70
2022/10/21 03:00:22;;;;;;;6.20;2.35;;;13.70;99.90;;;13.75;100.00;100244.75;5267735;28;20158;-70
2022/10/21 03:02:55;;;;;;;3.67;2.08;;;13.60;99.90;;;13.72;100.00;100235.97;5297525;22;20041;-69
2022/10/21 03:05:27;;;;;;;3.45;1.90;;;13.60;99.90;;;13.70;100.00;100242.94;5228596;28;20055;-69
2022/10/21 03:08:01;;;;;;;5.38;2.83;;;13.60;99.90;;;13.67;100.00;100245.50;5208446;28;20045;-69
2022/10/21 03:10:34;;;;;;;4.70;2.20;;;13.50;99.90;;;13.63;100.00;100238.47;5207588;28;20048;-69
2022/10/21 03:13:06;;;;;;;4.43;2.35;;;13.50;99.90;;;13.59;100.00;100245.41;5208236;28;20049;-69
2022/10/21 03:15:39;;;;;;;3.80;2.30;;;13.50;99.90;;;13.57;100.00;100236.66;5225659;28;20053;-69
2022/10/21 03:18:11;;;;;;;5.13;2.10;;;13.40;99.90;;;13.54;100.00;100237.47;5226023;28;20096;-69
2022/10/21 03:20:44;;;;;;;4.07;2.33;;;13.40;99.90;;;13.53;100.00;100230.50;5207642;28;20052;-69
2022/10/21 03:23:17;;;;;;;6.57;2.88;;;13.40;99.90;;;13.55;100.00;100218.28;5225679;28;20063;-69
2022/10/21 03:25:50;;;;;;;6.20;3.40;;;13.40;99.90;;;13.56;100.00;100217.44;5225583;28;20047;-69
2022/10/21 03:28:25;;;;;;;5.18;2.60;;;13.40;99.90;;;13.57;100.00;100213.97;5225468;28;20064;-69
2022/10/21 03:30:57;;;;;;;4.95;2.97;;;13.50;99.90;;;13.56;100.00;100224.41;5225271;28;20064;-69
2022/10/21 03:33:29;;;;;;;4.90;2.83;;;13.40;99.90;;;13.54;100.00;100220.91;5224928;28;20060;-69
2022/10/21 03:36:01;;;;;;;6.07;3.10;;;13.40;99.90;;;13.53;100.00;100216.53;5225186;28;20041;-69
2022/10/21 03:38:35;;;;;;;7.72;2.97;;;13.40;99.90;;;13.54;100.00;100218.28;5225455;28;20421;-69
2022/10/21 03:41:07;;;;;;;7.32;3.40;;;13.40;99.90;;;13.57;100.00;100227.06;5224675;28;20052;-68
2022/10/21 03:43:40;;;;;;;8.10;3.88;;;13.50;99.90;;;13.62;100.00;100226.22;5225453;28;20140;-69
2022/10/21 03:46:13;;;;;;;8.35;3.70;;;13.50;99.90;;;13.68;100.00;100229.81;5225118;28;20049;-68
2022/10/21 03:48:46;;;;;;;13.23;5.78;;;13.60;99.90;;;13.73;100.00;100220.28;5225111;28;20048;-68
2022/10/21 03:51:18;;;;;;;9.43;4.65;;;13.60;99.90;;;13.78;100.00;100231.69;5224786;28;20484;-69
2022/10/21 03:53:51;;;;;;;10.88;5.68;;;13.70;99.90;;;13.85;100.00;100232.66;5225787;28;20037;-68
2022/10/21 03:56:24;;;;;;;14.98;6.95;;;13.70;99.90;;;13.87;100.00;100230.94;5224871;28;20053;-68
2022/10/21 03:58:56;;;;;;;14.48;6.53;;;13.80;99.90;;;13.91;100.00;100230.13;5225356;28;20484;-69
2022/10/21 04:01:29;;;;;;;10.65;5.03;;;13.80;99.90;;;13.91;100.00;100235.34;5224103;28;20041;-68
2022/10/21 04:04:01;;;;;;;8.30;4.22;;;13.80;99.90;;;13.93;100.00;100241.47;5207158;28;20136;-68
2022/10/21 04:06:33;;;;;;;8.57;4.13;;;13.80;99.90;;;13.95;100.00;100249.34;5224792;28;20057;-69
2022/10/21 04:09:07;;;;;;;7.00;3.72;;;13.80;99.90;;;13.97;100.00;100248.53;5224902;28;20037;-69
2022/10/21 04:11:39;;;;;;;9.68;3.90;;;13.80;99.90;;;13.99;100.00;100248.53;5224430;28;20041;-69
2022/10/21 04:14:11;;;;;;;8.57;4.32;;;13.90;99.90;;;14.01;100.00;100257.28;5224562;28;20052;-69
2022/10/21 04:16:44;;;;;;;9.90;5.07;;;13.90;99.90;;;14.02;100.00;100264.31;5224713;28;20063;-69
2022/10/21 04:19:19;;;;;;;10.25;5.60;;;13.90;99.90;;;14.02;100.00;100259.97;5224685;28;20044;-69
2022/10/21 04:21:51;;;;;;;6.43;3.88;;;13.90;99.90;;;14.04;100.00;100250.38;5224101;28;20800;-69
2022/10/21 04:24:25;;;;;;;5.68;3.28;;;13.90;99.90;;;14.06;100.00;100242.50;5224626;28;20045;-69
2022/10/21 04:26:57;;;;;;;7.78;3.55;;;14.00;99.90;;;14.06;100.00;100237.28;5224690;28;20493;-68
2022/10/21 04:29:29;;;;;;;6.13;3.78;;;13.90;99.90;;;14.07;100.00;100249.50;5224771;28;20064;-69
2022/10/21 04:32:01;;;;;;;6.38;3.40;;;13.90;99.90;;;14.10;100.00;100246.94;5224061;28;20041;-69
2022/10/21 04:34:33;;;;;;;5.55;2.90;;;14.00;99.90;;;14.13;100.00;100246.97;5206892;28;20501;-70
2022/10/21 04:37:05;;;;;;;7.38;3.35;;;14.00;99.90;;;14.14;100.00;100235.63;5224564;28;20056;-69
2022/10/21 04:39:39;;;;;;;7.03;3.30;;;14.00;99.90;;;14.13;100.00;100228.63;5206662;28;20448;-69
2022/10/21 04:42:12;;;;;;;5.07;2.83;;;14.00;99.90;;;14.16;100.00;100227.78;5224111;28;20045;-68
2022/10/21 04:44:44;;;;;;;5.47;2.97;;;14.10;99.90;;;14.18;100.00;100226.94;5224413;28;20127;-69
2022/10/21 04:47:16;;;;;;;5.72;2.72;;;14.10;99.90;;;14.18;100.00;100237.41;5224023;28;20524;-69
2022/10/21 04:49:48;;;;;;;5.75;3.03;;;14.10;99.90;;;14.22;100.00;100233.97;5224312;28;20055;-69
2022/10/21 04:52:20;;;;;;;4.45;2.58;;;14.10;99.90;;;14.24;100.00;100226.13;5205938;28;20508;-69
2022/10/21 04:54:54;;;;;;;6.88;3.60;;;14.10;99.90;;;14.29;100.00;100234.94;5224392;28;20049;-69
2022/10/21 04:57:26;;;;;;;7.40;2.92;;;14.20;99.90;;;14.29;100.00;100225.31;5206085;28;20048;-69
2022/10/21 04:59:58;;;;;;;5.85;2.63;;;14.20;99.90;;;14.28;100.00;100223.56;5223799;28;20071;-69
2022/10/21 05:02:30;;;;;;;5.05;2.95;;;14.20;99.90;;;14.32;100.00;100222.72;5224162;28;20401;-69
2022/10/21 05:05:02;;;;;;;6.05;2.60;;;14.20;99.90;;;14.35;100.00;100221.88;5224538;28;20045;-69
2022/10/21 05:07:34;;;;;;;4.07;2.55;;;14.30;99.90;;;14.37;100.00;100212.28;5232077;28;20066;-69
2022/10/21 05:10:09;;;;;;;5.65;2.40;;;14.30;99.90;;;14.37;100.00;100207.91;5230707;28;20053;-69
2022/10/21 05:12:41;;;;;;;4.07;2.55;;;14.30;99.90;;;14.39;100.00;100207.91;5228152;28;20055;-69
2022/10/21 05:15:13;;;;;;;5.72;2.97;;;14.30;99.90;;;14.42;100.00;100207.09;5228445;28;20130;-69
2022/10/21 05:17:46;;;;;;;3.40;2.40;;;14.30;99.90;;;14.43;100.00;100216.72;5228125;28;20041;-68
2022/10/21 05:20:18;;;;;;;4.82;2.38;;;14.30;99.90;;;14.43;100.00;100196.63;5227774;28;20052;-68
2022/10/21 05:22:51;;;;;;;5.22;2.30;;;14.30;99.90;;;14.46;100.00;100201.00;5227784;28;20045;-62
2022/10/21 05:25:25;;;;;;;5.32;2.65;;;14.30;99.90;;;14.44;100.00;100192.25;5227968;28;20045;-62
2022/10/21 05:27:57;;;;;;;4.47;2.40;;;14.30;99.90;;;14.48;100.00;100186.22;5227957;28;20041;-62
2022/10/21 05:30:29;;;;;;;3.60;2.13;;;14.40;99.90;;;14.48;100.00;100175.72;5227385;28;20055;-62
2022/10/21 05:33:01;;;;;;;4.90;2.75;;;14.40;99.90;;;14.48;100.00;100176.59;5228045;28;20398;-63
2022/10/21 05:35:33;;;;;;;6.80;2.63;;;14.40;99.90;;;14.49;100.00;100174.84;5228132;28;20068;-63
2022/10/21 05:38:05;;;;;;;5.90;2.40;;;14.40;99.90;;;14.50;100.00;100163.50;5227663;28;20056;-62
2022/10/21 05:40:39;;;;;;;5.28;2.92;;;14.40;99.90;;;14.50;100.00;100163.50;5227339;28;20452;-63
2022/10/21 05:43:11;;;;;;;4.78;2.65;;;14.40;99.90;;;14.51;100.00;100167.88;5227549;28;20069;-63
2022/10/21 05:45:43;;;;;;;4.88;2.22;;;14.40;99.90;;;14.52;100.00;100164.38;5227452;28;20045;-62
2022/10/21 05:48:17;;;;;;;15.45;3.20;;;14.40;99.90;;;14.54;100.00;100165.25;5227568;28;20264;-63
2022/10/21 05:50:53;;;;;;;3.78;2.22;;;14.40;99.90;;;14.54;100.00;100162.63;5227049;28;20098;-63
2022/10/21 05:53:25;;;;;;;4.43;1.90;;;14.50;99.90;;;14.53;100.00;100160.88;5227246;28;20048;-63
2022/10/21 05:56:02;;;;;;;5.70;2.17;;;14.40;99.90;;;14.56;100.00;100163.56;5227523;28;20053;-62
2022/10/21 05:58:35;;;;;;;2.78;1.92;;;14.50;99.90;;;14.56;100.00;100168.78;5227741;28;20124;-62
2022/10/21 06:01:07;;;;;;;3.22;1.92;;;14.40;99.90;;;14.55;100.00;100160.06;5226852;28;20127;-63
2022/10/21 06:03:39;;;;;;;2.92;2.10;;;14.40;99.90;;;14.54;100.00;100158.31;5227164;28;20343;-62
2022/10/21 06:06:11;;;;;;;3.55;2.00;;;14.40;99.90;;;14.54;100.00;100154.75;5227567;28;20041;-62
2022/10/21 06:08:44;;;;;;;4.22;2.15;;;14.50;99.90;;;14.51;100.00;100153.00;5227210;28;20047;-62
2022/10/21 06:11:20;;;;;;;4.00;2.42;;;14.40;99.90;;;14.49;100.00;100151.25;5226927;28;20123;-62
2022/10/21 06:13:52;;;;;;;4.85;2.33;;;14.40;99.90;;;14.51;100.00;100149.50;5226824;28;20048;-62
2022/10/21 06:16:25;;;;;;;3.90;2.20;;;14.40;99.90;;;14.52;100.00;100151.25;5227031;28;20071;-62
2022/10/21 06:18:57;;;;;;;4.57;2.17;;;14.40;99.90;;;14.53;100.00;100145.16;5208309;28;20076;-62
2022/10/21 06:21:29;;;;;;;3.42;2.17;;;14.50;99.90;;;14.55;100.00;100140.81;5226254;28;20048;-62
2022/10/21 06:24:01;;;;;;;3.20;1.90;;;14.50;99.90;;;14.55;100.00;100146.06;5227282;28;20045;-62
2022/10/21 06:26:34;;;;;;;3.17;2.08;;;14.50;99.90;;;14.55;100.00;100151.31;5226843;28;20524;-62
2022/10/21 06:29:06;;;;;;;2.67;1.83;;;14.50;99.90;;;14.56;100.00;100145.19;5226877;28;20045;-62
2022/10/21 06:31:38;;;;;;;3.42;1.80;;;14.50;99.90;;;14.56;100.00;100156.56;5226040;28;20052;-62
2022/10/21 06:34:11;;;;;;;3.83;2.30;;;14.50;99.90;;;14.55;100.00;100148.69;5226967;28;20393;-62
2022/10/21 06:36:43;;;;;;;4.30;1.95;;;14.50;99.90;;;14.56;100.00;100147.81;5226725;28;20486;-63
2022/10/21 06:39:15;;;;;;;3.33;2.20;;;14.50;99.90;;;14.58;100.00;100160.06;5227611;28;20409;-62
2022/10/21 06:41:49;;;;;;;4.82;2.15;;;14.40;99.90;;;14.59;100.00;100155.69;5226027;28;20048;-62
2022/10/21 06:44:42;;;;;;;4.18;2.00;;;14.50;99.90;;;14.61;100.00;100159.22;5226573;28;20057;-61
2022/10/21 06:47:16;;;;;;;3.88;2.10;;;14.50;99.90;;;14.61;100.00;100156.59;5226757;28;20128;-62
2022/10/21 06:49:48;;;;;;;4.88;2.00;;;14.50;99.90;;;14.62;100.00;100172.34;5226007;28;20041;-62
2022/10/21 06:52:20;;;;;;;6.88;2.40;;;14.50;99.90;;;14.63;100.00;100167.97;5226201;28;20048;-62
2022/10/21 06:54:52;;;;;;;4.88;2.50;;;14.50;99.90;;;14.69;100.00;100172.41;5226800;28;20412;-63
2022/10/21 06:57:26;;;;;;;4.75;2.25;;;14.60;99.90;;;14.74;100.00;100168.97;5226613;28;20127;-62
2022/10/21 06:59:58;;;;;;;7.53;2.42;;;14.70;99.90;;;14.77;100.00;100187.31;5207850;28;20045;-62
2022/10/21 07:02:30;;;;;;;5.15;2.83;;;14.70;99.90;;;14.82;100.00;100190.00;5225880;28;20037;-62
2022/10/21 07:05:03;;;;;;;4.50;2.10;;;14.70;99.90;;;14.85;100.00;100196.13;5229619;28;20049;-63
2022/10/21 07:07:36;;;;;;;6.35;2.60;;;14.70;99.90;;;14.85;100.00;100211.00;5209393;28;20056;-59
2022/10/21 07:10:08;;;;;;;3.25;2.17;;;14.70;99.90;;;14.88;100.00;100213.66;5239826;28;20051;-58
2022/10/21 07:12:42;;;;;;;4.90;2.47;;;14.80;99.90;;;14.90;100.00;100219.78;5237131;28;20044;-56
2022/10/21 07:15:14;;;;;;;4.53;2.30;;;14.80;99.90;;;15.06;100.00;100220.78;5238950;28;20048;-58
2022/10/21 07:17:46;;;;;;;3.85;2.22;;;14.90;99.90;;;15.06;100.00;100229.56;5225781;28;20510;-59
2022/10/21 07:20:19;;;;;;;4.25;2.00;;;15.00;99.90;;;15.06;100.00;100226.03;5245177;28;20049;-59
2022/10/21 07:22:51;;;;;;;4.25;2.30;;;15.00;99.90;;;15.05;100.00;100230.41;5229234;28;20037;-58
2022/10/21 07:25:23;;;;;;;5.25;2.20;;;15.00;99.90;;;15.05;100.00;100232.16;5228476;28;20049;-58
2022/10/21 07:27:57;;;;;;;3.58;1.92;;;15.00;99.90;;;15.07;100.00;100233.06;5234300;28;20549;-58
2022/10/21 07:30:29;;;;;;;3.67;2.20;;;15.00;99.90;;;15.08;100.00;100237.44;5225779;28;20059;-57
2022/10/21 07:33:01;;;;;;;4.03;2.08;;;15.00;99.90;;;15.09;100.00;100244.44;5234543;28;20033;-58
2022/10/21 07:35:33;;;;;;;4.45;2.20;;;15.00;99.90;;;15.10;100.00;100241.81;5204285;28;20077;-58
2022/10/21 07:38:06;;;;;;;4.10;2.08;;;15.00;99.90;;;15.11;100.00;100237.44;5237137;28;20040;-58
2022/10/21 07:40:43;;;;;;;6.03;2.55;;;15.00;99.90;;;15.13;100.00;100230.47;5246203;28;20048;-57
2022/10/21 07:43:16;;;;;;;5.63;2.40;;;15.00;99.90;;;15.14;100.00;100229.63;5228669;28;20041;-57
2022/10/21 07:45:48;;;;;;;5.20;2.75;;;15.00;99.90;;;15.15;100.00;100249.75;5246110;28;20401;-58
2022/10/21 07:48:22;;;;;;;5.95;2.78;;;15.00;99.90;;;15.16;100.00;100246.25;5245764;28;20041;-58
2022/10/21 07:50:54;;;;;;;4.15;2.50;;;15.00;99.90;;;15.17;100.00;100245.38;5245662;28;20062;-57
2022/10/21 07:53:26;;;;;;;5.60;2.90;;;15.00;99.90;;;15.22;100.00;100258.53;5236523;28;20347;-58
2022/10/21 07:56:04;;;;;;;4.25;2.50;;;15.10;99.90;;;15.20;100.00;100248.03;5241185;28;20049;-58
2022/10/21 07:58:38;;;;;;;4.05;2.10;;;15.10;99.90;;;15.20;100.00;100248.91;5238678;28;20051;-57
2022/10/21 08:01:11;;;;;;;5.00;2.13;;;15.10;99.90;;;15.21;100.00;100249.78;5229800;28;20049;-58
2022/10/21 08:03:43;;;;;;;4.05;2.45;;;15.10;99.90;;;15.22;100.00;100251.53;5223891;28;20436;-58
2022/10/21 08:06:17;;;;;;;4.55;2.10;;;15.10;99.90;;;15.20;100.00;100250.66;5223943;28;20045;-58
2022/10/21 08:08:50;;;;;;;5.35;2.53;;;15.10;99.90;;;15.20;100.00;100256.78;5223848;28;20484;-58
2022/10/21 08:11:23;;;;;;;4.07;2.20;;;15.10;99.90;;;15.20;100.00;100261.16;5223280;28;20041;-58
2022/10/21 08:13:57;;;;;;;4.28;2.17;;;15.10;99.90;;;15.19;100.00;100264.63;5223557;28;20141;-58
2022/10/21 08:16:30;;;;;;;3.67;1.95;;;15.10;99.90;;;15.20;100.00;100275.16;5224074;28;20563;-58
2022/10/21 08:19:04;;;;;;;2.53;1.65;;;15.10;99.90;;;15.20;100.00;100282.16;5225039;28;20128;-58
2022/10/21 08:21:37;;;;;;;3.05;1.77;;;15.10;99.90;;;15.21;100.00;100276.03;5224608;28;20057;-58
2022/10/21 08:24:09;;;;;;;5.00;2.10;;;15.10;99.90;;;15.22;100.00;100272.53;5225008;28;20099;-58
2022/10/21 08:26:42;;;;;;;3.28;1.85;;;15.10;99.90;;;15.22;100.00;100283.03;5225044;28;20076;-58
2022/10/21 08:29:15;;;;;;;3.42;1.92;;;15.10;99.90;;;15.23;100.00;100284.81;5224991;28;20163;-57
2022/10/21 08:31:48;;;;;;;5.28;2.33;;;15.10;99.90;;;15.23;100.00;100274.28;5224313;28;20037;-58
2022/10/21 08:34:20;;;;;;;4.30;1.90;;;15.10;99.90;;;15.23;100.00;100276.91;5206910;28;20142;-58
2022/10/21 08:36:52;;;;;;;6.55;3.22;;;15.10;99.90;;;15.22;100.00;100283.03;5224999;28;20468;-57
2022/10/21 08:39:24;;;;;;;6.15;2.40;;;15.10;99.90;;;15.23;100.00;100286.56;5224774;28;20098;-57
2022/10/21 08:42:08;;;;;;;5.47;2.70;;;15.10;99.90;;;15.23;100.00;100290.06;5224422;28;20049;-57
2022/10/21 08:44:49;;;;;;;8.73;3.28;;;15.10;99.90;;;15.24;100.00;100291.81;5223744;28;20130;-58
2022/10/21 08:47:31;;;;;;;4.40;2.03;;;15.10;99.90;;;15.25;100.00;100290.06;5224756;28;20041;-58
2022/10/21 08:50:12;;;;;;;6.88;2.65;;;15.10;99.90;;;15.26;100.00;100287.47;5224644;28;20412;-58
2022/10/21 08:52:47;;;;;;;;;;;15.10;99.90;;;15.24;100.00;100291.81;5224980;28;20099;-57
2022/10/21 08:55:22;;;;;;;5.55;2.55;;;15.10;99.90;;;15.26;100.00;100292.72;5224651;28;20427;-57
2022/10/21 08:57:55;;;;;;;5.72;2.72;;;15.10;99.90;;;15.27;100.00;100289.22;5224676;28;20098;-57
2022/10/21 09:00:35;;;;;;;6.30;2.63;;;15.20;99.90;;;15.29;100.00;100294.47;5224263;28;20060;-57
2022/10/21 09:03:21;;;;;;;5.82;2.65;;;15.20;99.90;;;15.31;100.00;100301.47;5265632;22;20131;-82
2022/10/21 09:06:15;;;;;;;3.83;2.40;;;15.20;99.90;;;15.34;100.00;100305.91;5222318;28;20060;-83
2022/10/21 09:09:06;;;;;;;5.53;2.58;;;15.20;99.90;;;15.32;100.00;100311.16;5230802;28;20049;-83
2022/10/21 09:11:55;;;;;;;6.78;2.42;;;15.20;99.90;;;15.36;100.00;100310.28;5248351;28;20513;-83
2022/10/21 09:14:46;;;;;;;5.07;2.42;;;15.20;99.90;;;15.35;100.00;100308.53;5230997;28;20052;-83
2022/10/21 09:17:37;;;;;;;5.43;2.78;;;15.20;99.90;;;15.38;100.00;100307.66;5230341;28;20055;-84
2022/10/21 09:20:26;;;;;;;3.28;2.10;;;15.20;99.90;;;15.40;100.00;100306.81;5230265;28;20052;-83
2022/10/21 09:23:15;;;;;;;3.78;1.88;;;15.20;99.90;;;15.41;100.00;100313.81;5230681;28;20052;-82
2022/10/21 09:25:56;;;;;;;3.63;1.83;;;15.30;99.90;;;15.42;100.00;100307.72;5229981;28;20457;-83
2022/10/21 09:28:29;;;;;;;5.78;2.88;;;15.30;99.90;;;15.42;100.00;100305.06;5231125;28;20122;-83
2022/10/21 09:31:03;;;;;;;4.97;2.10;;;15.30;99.90;;;15.43;100.00;100298.06;5230421;28;20056;-83
2022/10/21 09:33:37;;;;;;;;;;;15.30;99.90;;;15.42;100.00;100294.56;5248129;28;20037;-84
2022/10/21 09:36:15;;;;;;;3.58;2.22;;;15.30;99.90;;;15.43;100.00;100291.06;5230563;28;20298;-83
2022/10/21 09:38:56;;;;;;;4.65;2.30;;;15.30;99.90;;;15.45;100.00;100291.06;5247925;28;20051;-83
2022/10/21 09:41:33;;;;;;;3.05;1.80;;;15.30;99.90;;;15.44;100.00;100282.31;5248264;28;20143;-82
2022/10/21 09:44:06;;;;;;;3.40;1.73;;;15.30;99.90;;;15.43;100.00;100285.81;5248174;28;20506;-83
2022/10/21 09:46:38;;;;;;;4.78;2.22;;;15.30;99.90;;;15.44;100.00;100276.19;5247174;28;20053;-83
2022/10/21 09:49:24;;;;;;;5.30;2.55;;;15.30;99.90;;;15.45;100.00;100281.47;5247016;28;20438;-83
2022/10/21 09:51:59;;;;;;;6.93;2.58;;;15.30;99.90;;;15.44;100.00;100271.81;5229174;28;20108;-83
2022/10/21 09:54:37;;;;;;;5.40;2.00;;;15.30;99.90;;;15.44;100.00;100269.19;5246975;28;20073;-84
2022/10/21 09:57:15;;;;;;;6.55;2.45;;;15.40;99.90;;;15.45;100.00;100268.34;5232545;28;20059;-83
2022/10/21 09:59:58;;;;;;;5.25;2.40;;;15.30;99.90;;;15.47;100.00;100261.34;5251480;28;20043;-83
2022/10/21 10:02:34;;;;;;;5.85;2.70;;;15.30;99.90;;;15.45;100.00;100242.09;5232925;28;20048;-84
2022/10/21 10:05:40;;;;;;;6.32;2.60;;;15.30;99.90;;;15.44;100.00;100229.78;5236534;28;20056;-84
2022/10/21 10:08:30;;;;;;;6.57;3.00;;;15.40;99.90;;;15.45;100.00;100212.28;5236716;28;20048;-84
2022/10/21 10:11:15;;;;;;;5.72;2.50;;;15.40;99.90;;;15.46;100.00;100191.31;5254481;28;20048;-84
2022/10/21 10:13:50;;;;;;;6.13;2.17;;;15.40;99.90;;;15.51;100.00;100161.53;5237570;28;20131;-84
2022/10/21 10:16:28;;;;;;;6.38;2.40;;;15.40;99.90;;;15.51;100.00;100151.03;5235896;28;20052;-83
2022/10/21 10:19:23;;;;;;;5.10;2.22;;;15.40;99.90;;;15.54;100.00;100177.34;5234093;28;20395;-84
2022/10/21 10:22:13;;;;;;;3.85;1.92;;;15.50;99.90;;;15.56;100.00;100247.38;5227276;28;20048;-84
2022/10/21 10:24:45;;;;;;;3.50;2.00;;;15.50;99.90;;;15.59;100.00;100306.97;5233902;28;20048;-84
2022/10/21 10:27:25;;;;;;;5.60;2.53;;;15.50;99.90;;;15.63;100.00;100329.78;5236691;28;20166;-84
2022/10/21 10:29:59;;;;;;;5.18;2.63;;;15.50;99.90;;;15.65;100.00;100349.06;5235765;28;20459;-84
2022/10/21 10:32:35;;;;;;;3.05;2.00;;;15.50;99.90;;;15.71;100.00;100359.59;5235677;28;20395;-84
2022/10/21 10:35:17;;;;;;;4.80;2.55;;;15.50;99.90;;;15.73;100.00;100364.00;5236580;28;20639;-84
2022/10/21 10:37:52;;;;;;;3.85;2.10;;;15.60;99.90;;;15.76;100.00;100357.00;5254496;28;20044;-84
2022/10/21 10:40:26;;;;;;;4.05;2.40;;;15.60;99.90;;;15.80;100.00;100364.94;5257201;28;20047;-83
2022/10/21 10:43:04;;;;;;;3.90;2.30;;;15.60;99.90;;;15.80;100.00;100364.94;5239249;28;20057;-84